sensor_id;sensor_type;location;lat;lon;timestamp;temperature;humidity
52965;DHT22;42923;53.220;6.528;2023-02-15T00:00:22;0.80;99.90
52965;DHT22;42923;53.220;6.528;2023-02-15T00:02:48;0.80;99.90
52965;DHT22;42923;53.220;6.528;2023-02-15T00:05:14;0.80;99.90
52965;DHT22;42923;53.220;6.528;2023-02-15T00:07:40;0.80;99.90
52965;DHT22;42923;53.220;6.528;2023-02-15T00:10:06;0.70;99.90
52965;DHT22;42923;53.220;6.528;2023-02-15T00:12:32;0.70;99.90
52965;DHT22;42923;53.220;6.528;2023-02-15T00:14:58;0.80;99.90
52965;DHT22;42923;53.220;6.528;2023-02-15T00:17:24;0.70;99.90
52965;DHT22;42923;53.220;6.528;2023-02-15T00:19:49;0.70;99.90
52965;DHT22;42923;53.220;6.528;2023-02-15T00:22:15;0.70;99.90
52965;DHT22;42923;53.220;6.528;2023-02-15T00:24:41;0.70;99.90
52965;DHT22;42923;53.220;6.528;2023-02-15T00:27:06;0.70;99.90
52965;DHT22;42923;53.220;6.528;2023-02-15T00:29:32;0.60;99.90
52965;DHT22;42923;53.220;6.528;2023-02-15T00:31:58;0.60;99.90
52965;DHT22;42923;53.220;6.528;2023-02-15T00:34:25;0.60;99.90
52965;DHT22;42923;53.220;6.528;2023-02-15T00:36:51;0.60;99.90
52965;DHT22;42923;53.220;6.528;2023-02-15T00:39:18;0.60;99.90
52965;DHT22;42923;53.220;6.528;2023-02-15T00:41:45;0.50;99.90
52965;DHT22;42923;53.220;6.528;2023-02-15T00:44:11;0.50;99.90
52965;DHT22;42923;53.220;6.528;2023-02-15T00:46:37;0.50;99.90
52965;DHT22;42923;53.220;6.528;2023-02-15T00:49:03;0.50;99.90
52965;DHT22;42923;53.220;6.528;2023-02-15T00:51:30;0.50;99.90
52965;DHT22;42923;53.220;6.528;2023-02-15T00:53:56;0.50;99.90
52965;DHT22;42923;53.220;6.528;2023-02-15T00:56:22;0.40;99.90
52965;DHT22;42923;53.220;6.528;2023-02-15T00:58:47;0.40;99.90
52965;DHT22;42923;53.220;6.528;2023-02-15T01:01:16;0.40;99.90
52965;DHT22;42923;53.220;6.528;2023-02-15T01:03:44;0.40;99.90
52965;DHT22;42923;53.220;6.528;2023-02-15T01:06:11;0.40;99.90
52965;DHT22;42923;53.220;6.528;2023-02-15T01:08:37;0.30;99.90
52965;DHT22;42923;53.220;6.528;2023-02-15T01:11:08;0.30;99.90
52965;DHT22;42923;53.220;6.528;2023-02-15T01:13:35;0.30;99.90
52965;DHT22;42923;53.220;6.528;2023-02-15T01:16:01;0.30;99.90
52965;DHT22;42923;53.220;6.528;2023-02-15T01:18:27;0.20;99.90
52965;DHT22;42923;53.220;6.528;2023-02-15T01:20:53;0.20;99.90
52965;DHT22;42923;53.220;6.528;2023-02-15T01:23:19;0.20;99.90
52965;DHT22;42923;53.220;6.528;2023-02-15T01:25:45;0.20;99.90
52965;DHT22;42923;53.220;6.528;2023-02-15T01:28:11;0.20;99.90
52965;DHT22;42923;53.220;6.528;2023-02-15T01:30:38;0.20;99.90
52965;DHT22;42923;53.220;6.528;2023-02-15T01:33:04;0.20;99.90
52965;DHT22;42923;53.220;6.528;2023-02-15T01:35:30;0.10;99.90
52965;DHT22;42923;53.220;6.528;2023-02-15T01:37:56;0.10;99.90
52965;DHT22;42923;53.220;6.528;2023-02-15T01:40:23;0.10;99.90
52965;DHT22;42923;53.220;6.528;2023-02-15T01:42:51;0.10;99.90
52965;DHT22;42923;53.220;6.528;2023-02-15T01:45:24;0.00;99.90
52965;DHT22;42923;53.220;6.528;2023-02-15T01:48:17;0.00;99.90
52965;DHT22;42923;53.220;6.528;2023-02-15T01:50:52;0.00;99.90
52965;DHT22;42923;53.220;6.528;2023-02-15T01:53:36;0.00;99.90
52965;DHT22;42923;53.220;6.528;2023-02-15T01:56:13;0.00;99.90
52965;DHT22;42923;53.220;6.528;2023-02-15T01:58:41;0.00;99.90
52965;DHT22;42923;53.220;6.528;2023-02-15T02:01:08;-0.10;99.90
52965;DHT22;42923;53.220;6.528;2023-02-15T02:06:13;-0.10;99.90
52965;DHT22;42923;53.220;6.528;2023-02-15T02:08:40;-0.10;99.90
52965;DHT22;42923;53.220;6.528;2023-02-15T02:11:11;-0.10;99.90
52965;DHT22;42923;53.220;6.528;2023-02-15T02:13:38;-0.10;99.90
52965;DHT22;42923;53.220;6.528;2023-02-15T02:16:24;-0.10;99.90
52965;DHT22;42923;53.220;6.528;2023-02-15T02:27:26;-0.20;99.90
52965;DHT22;42923;53.220;6.528;2023-02-15T02:43:18;-0.30;99.90
52965;DHT22;42923;53.220;6.528;2023-02-15T02:46:11;-0.30;99.90
52965;DHT22;42923;53.220;6.528;2023-02-15T02:48:39;-0.30;99.90
52965;DHT22;42923;53.220;6.528;2023-02-15T02:51:05;-0.30;99.90
52965;DHT22;42923;53.220;6.528;2023-02-15T02:53:31;-0.30;99.90
52965;DHT22;42923;53.220;6.528;2023-02-15T02:56:05;-0.30;99.90
52965;DHT22;42923;53.220;6.528;2023-02-15T02:58:42;-0.30;99.90
52965;DHT22;42923;53.220;6.528;2023-02-15T03:03:53;-0.30;99.90
52965;DHT22;42923;53.220;6.528;2023-02-15T03:06:42;-0.30;99.90
52965;DHT22;42923;53.220;6.528;2023-02-15T03:09:28;-0.30;99.90
52965;DHT22;42923;53.220;6.528;2023-02-15T03:12:53;-0.30;99.90
52965;DHT22;42923;53.220;6.528;2023-02-15T03:15:04;-0.30;99.90
52965;DHT22;42923;53.220;6.528;2023-02-15T03:17:33;-0.40;99.90
52965;DHT22;42923;53.220;6.528;2023-02-15T03:20:06;-0.40;99.90
52965;DHT22;42923;53.220;6.528;2023-02-15T03:22:40;-0.40;99.90
52965;DHT22;42923;53.220;6.528;2023-02-15T03:25:15;-0.50;99.90
52965;DHT22;42923;53.220;6.528;2023-02-15T03:27:46;-0.50;99.90
52965;DHT22;42923;53.220;6.528;2023-02-15T03:30:14;-0.60;99.90
52965;DHT22;42923;53.220;6.528;2023-02-15T03:32:41;-0.60;99.90
52965;DHT22;42923;53.220;6.528;2023-02-15T03:35:08;-0.60;99.90
52965;DHT22;42923;53.220;6.528;2023-02-15T03:37:36;-0.70;99.90
52965;DHT22;42923;53.220;6.528;2023-02-15T03:45:50;-0.70;99.90
52965;DHT22;42923;53.220;6.528;2023-02-15T03:48:29;-0.70;99.90
52965;DHT22;42923;53.220;6.528;2023-02-15T03:50:59;-0.70;99.90
52965;DHT22;42923;53.220;6.528;2023-02-15T03:53:46;-0.70;99.90
52965;DHT22;42923;53.220;6.528;2023-02-15T03:56:12;-0.70;99.90
52965;DHT22;42923;53.220;6.528;2023-02-15T03:58:38;-0.70;99.90
52965;DHT22;42923;53.220;6.528;2023-02-15T04:01:33;-0.70;99.90
52965;DHT22;42923;53.220;6.528;2023-02-15T04:04:20;-0.80;99.90
52965;DHT22;42923;53.220;6.528;2023-02-15T04:06:46;-0.80;99.90
52965;DHT22;42923;53.220;6.528;2023-02-15T04:09:13;-0.80;99.90
52965;DHT22;42923;53.220;6.528;2023-02-15T04:11:58;-0.80;99.90
52965;DHT22;42923;53.220;6.528;2023-02-15T04:14:24;-0.80;99.90
52965;DHT22;42923;53.220;6.528;2023-02-15T04:17:09;-0.80;99.90
52965;DHT22;42923;53.220;6.528;2023-02-15T04:19:35;-0.80;99.90
52965;DHT22;42923;53.220;6.528;2023-02-15T04:22:19;-0.80;99.90
52965;DHT22;42923;53.220;6.528;2023-02-15T04:25:04;-0.80;99.90
52965;DHT22;42923;53.220;6.528;2023-02-15T04:27:37;-0.70;99.90
52965;DHT22;42923;53.220;6.528;2023-02-15T04:30:03;-0.70;99.90
52965;DHT22;42923;53.220;6.528;2023-02-15T04:32:29;-0.70;99.90
52965;DHT22;42923;53.220;6.528;2023-02-15T04:34:55;-0.70;99.90
52965;DHT22;42923;53.220;6.528;2023-02-15T04:37:21;-0.60;99.90
52965;DHT22;42923;53.220;6.528;2023-02-15T04:39:46;-0.70;99.90
52965;DHT22;42923;53.220;6.528;2023-02-15T04:42:12;-0.70;99.90
52965;DHT22;42923;53.220;6.528;2023-02-15T04:44:38;-0.70;99.90
52965;DHT22;42923;53.220;6.528;2023-02-15T04:47:04;-0.70;99.90
52965;DHT22;42923;53.220;6.528;2023-02-15T04:49:29;-0.70;99.90
52965;DHT22;42923;53.220;6.528;2023-02-15T04:51:55;-0.70;99.90
52965;DHT22;42923;53.220;6.528;2023-02-15T04:54:21;-0.70;99.90
52965;DHT22;42923;53.220;6.528;2023-02-15T04:56:46;-0.70;99.90
52965;DHT22;42923;53.220;6.528;2023-02-15T04:59:13;-0.70;99.90
52965;DHT22;42923;53.220;6.528;2023-02-15T05:01:38;-0.70;99.90
52965;DHT22;42923;53.220;6.528;2023-02-15T05:04:04;-0.60;99.90
52965;DHT22;42923;53.220;6.528;2023-02-15T05:06:30;-0.70;99.90
52965;DHT22;42923;53.220;6.528;2023-02-15T05:08:56;-0.70;99.90
52965;DHT22;42923;53.220;6.528;2023-02-15T05:11:24;-0.70;99.90
52965;DHT22;42923;53.220;6.528;2023-02-15T05:13:50;-0.70;99.90
52965;DHT22;42923;53.220;6.528;2023-02-15T05:16:16;-0.70;99.90
52965;DHT22;42923;53.220;6.528;2023-02-15T05:18:42;-0.60;99.90
52965;DHT22;42923;53.220;6.528;2023-02-15T05:21:07;-0.60;99.90
52965;DHT22;42923;53.220;6.528;2023-02-15T05:23:33;-0.60;99.90
52965;DHT22;42923;53.220;6.528;2023-02-15T05:25:59;-0.50;99.90
52965;DHT22;42923;53.220;6.528;2023-02-15T05:28:43;-0.40;99.90
52965;DHT22;42923;53.220;6.528;2023-02-15T05:31:14;-0.40;99.90
52965;DHT22;42923;53.220;6.528;2023-02-15T05:33:40;-0.30;99.90
52965;DHT22;42923;53.220;6.528;2023-02-15T05:36:07;-0.20;99.90
52965;DHT22;42923;53.220;6.528;2023-02-15T05:38:33;-0.20;99.90
52965;DHT22;42923;53.220;6.528;2023-02-15T05:40:59;-0.10;99.90
52965;DHT22;42923;53.220;6.528;2023-02-15T05:43:25;-0.10;99.90
52965;DHT22;42923;53.220;6.528;2023-02-15T05:45:53;-0.10;99.90
52965;DHT22;42923;53.220;6.528;2023-02-15T05:48:20;0.00;99.90
52965;DHT22;42923;53.220;6.528;2023-02-15T05:50:46;0.00;99.90
52965;DHT22;42923;53.220;6.528;2023-02-15T05:53:21;-0.10;99.90
52965;DHT22;42923;53.220;6.528;2023-02-15T05:55:47;-0.10;99.90
52965;DHT22;42923;53.220;6.528;2023-02-15T05:58:13;-0.10;99.90
52965;DHT22;42923;53.220;6.528;2023-02-15T06:00:38;-0.10;99.90
52965;DHT22;42923;53.220;6.528;2023-02-15T06:03:04;-0.10;99.90
52965;DHT22;42923;53.220;6.528;2023-02-15T06:05:30;-0.10;99.90
52965;DHT22;42923;53.220;6.528;2023-02-15T06:07:56;-0.10;99.90
52965;DHT22;42923;53.220;6.528;2023-02-15T06:10:21;0.00;99.90
52965;DHT22;42923;53.220;6.528;2023-02-15T06:12:47;0.30;99.90
52965;DHT22;42923;53.220;6.528;2023-02-15T06:15:13;0.20;99.90
52965;DHT22;42923;53.220;6.528;2023-02-15T06:17:41;0.40;99.90
52965;DHT22;42923;53.220;6.528;2023-02-15T06:20:08;0.50;99.90
52965;DHT22;42923;53.220;6.528;2023-02-15T06:22:34;0.60;99.90
52965;DHT22;42923;53.220;6.528;2023-02-15T06:24:59;0.70;99.90
52965;DHT22;42923;53.220;6.528;2023-02-15T06:27:25;0.80;99.90
52965;DHT22;42923;53.220;6.528;2023-02-15T06:29:51;0.80;99.90
52965;DHT22;42923;53.220;6.528;2023-02-15T06:32:17;0.80;99.90
52965;DHT22;42923;53.220;6.528;2023-02-15T06:34:43;0.80;99.90
52965;DHT22;42923;53.220;6.528;2023-02-15T06:37:09;0.90;99.90
52965;DHT22;42923;53.220;6.528;2023-02-15T06:39:34;1.00;99.90
52965;DHT22;42923;53.220;6.528;2023-02-15T06:42:00;1.00;99.90
52965;DHT22;42923;53.220;6.528;2023-02-15T06:44:26;1.10;99.90
52965;DHT22;42923;53.220;6.528;2023-02-15T06:46:51;1.10;99.90
52965;DHT22;42923;53.220;6.528;2023-02-15T06:49:17;1.10;99.90
52965;DHT22;42923;53.220;6.528;2023-02-15T06:51:43;1.20;99.90
52965;DHT22;42923;53.220;6.528;2023-02-15T06:54:09;1.20;99.90
52965;DHT22;42923;53.220;6.528;2023-02-15T06:56:34;1.20;99.90
52965;DHT22;42923;53.220;6.528;2023-02-15T06:59:00;1.20;99.90
52965;DHT22;42923;53.220;6.528;2023-02-15T07:01:26;1.20;99.90
52965;DHT22;42923;53.220;6.528;2023-02-15T07:03:52;1.20;99.90
52965;DHT22;42923;53.220;6.528;2023-02-15T07:06:17;1.20;99.90
52965;DHT22;42923;53.220;6.528;2023-02-15T07:08:43;1.20;99.90
52965;DHT22;42923;53.220;6.528;2023-02-15T07:11:09;1.20;99.90
52965;DHT22;42923;53.220;6.528;2023-02-15T07:13:53;1.10;99.90
52965;DHT22;42923;53.220;6.528;2023-02-15T07:16:19;1.10;99.90
52965;DHT22;42923;53.220;6.528;2023-02-15T07:18:45;1.20;99.90
52965;DHT22;42923;53.220;6.528;2023-02-15T07:21:11;1.20;99.90
52965;DHT22;42923;53.220;6.528;2023-02-15T07:23:37;1.20;99.90
52965;DHT22;42923;53.220;6.528;2023-02-15T07:26:04;1.20;99.90
52965;DHT22;42923;53.220;6.528;2023-02-15T07:28:30;1.20;99.90
52965;DHT22;42923;53.220;6.528;2023-02-15T07:30:56;1.30;99.90
52965;DHT22;42923;53.220;6.528;2023-02-15T07:33:23;1.20;99.90
52965;DHT22;42923;53.220;6.528;2023-02-15T07:35:54;1.30;99.90
52965;DHT22;42923;53.220;6.528;2023-02-15T07:38:20;1.30;99.90
52965;DHT22;42923;53.220;6.528;2023-02-15T07:40:47;2.00;99.90
52965;DHT22;42923;53.220;6.528;2023-02-15T07:43:13;1.40;99.90
52965;DHT22;42923;53.220;6.528;2023-02-15T07:45:39;1.40;99.90
52965;DHT22;42923;53.220;6.528;2023-02-15T07:48:06;1.50;99.90
52965;DHT22;42923;53.220;6.528;2023-02-15T07:50:32;1.50;99.90
52965;DHT22;42923;53.220;6.528;2023-02-15T07:52:58;1.60;99.90
52965;DHT22;42923;53.220;6.528;2023-02-15T07:55:24;1.60;99.90
52965;DHT22;42923;53.220;6.528;2023-02-15T07:57:51;1.70;99.90
52965;DHT22;42923;53.220;6.528;2023-02-15T08:00:18;1.80;99.90
52965;DHT22;42923;53.220;6.528;2023-02-15T08:02:49;1.90;99.90
52965;DHT22;42923;53.220;6.528;2023-02-15T08:05:43;1.90;99.90
52965;DHT22;42923;53.220;6.528;2023-02-15T08:08:10;2.00;99.90
52965;DHT22;42923;53.220;6.528;2023-02-15T08:14:21;2.10;99.90
52965;DHT22;42923;53.220;6.528;2023-02-15T08:16:59;2.20;99.90
52965;DHT22;42923;53.220;6.528;2023-02-15T08:19:29;2.20;99.90
52965;DHT22;42923;53.220;6.528;2023-02-15T08:22:01;2.20;99.90
52965;DHT22;42923;53.220;6.528;2023-02-15T08:24:29;2.30;99.90
52965;DHT22;42923;53.220;6.528;2023-02-15T08:26:55;2.40;99.90
52965;DHT22;42923;53.220;6.528;2023-02-15T08:29:27;2.50;99.90
52965;DHT22;42923;53.220;6.528;2023-02-15T08:31:55;2.60;99.90
52965;DHT22;42923;53.220;6.528;2023-02-15T08:34:24;2.80;99.90
52965;DHT22;42923;53.220;6.528;2023-02-15T08:36:50;2.90;99.90
52965;DHT22;42923;53.220;6.528;2023-02-15T08:39:16;3.00;99.90
52965;DHT22;42923;53.220;6.528;2023-02-15T08:41:43;3.10;99.90
52965;DHT22;42923;53.220;6.528;2023-02-15T08:44:10;3.90;99.90
52965;DHT22;42923;53.220;6.528;2023-02-15T08:46:39;3.40;99.90
52965;DHT22;42923;53.220;6.528;2023-02-15T08:49:05;3.60;99.90
52965;DHT22;42923;53.220;6.528;2023-02-15T08:51:33;3.70;99.90
52965;DHT22;42923;53.220;6.528;2023-02-15T08:54:04;3.90;99.90
52965;DHT22;42923;53.220;6.528;2023-02-15T08:56:34;4.10;99.90
52965;DHT22;42923;53.220;6.528;2023-02-15T08:59:00;4.10;99.90
52965;DHT22;42923;53.220;6.528;2023-02-15T09:01:31;4.10;99.90
52965;DHT22;42923;53.220;6.528;2023-02-15T09:03:59;4.10;99.90
52965;DHT22;42923;53.220;6.528;2023-02-15T09:06:26;4.20;99.90
52965;DHT22;42923;53.220;6.528;2023-02-15T09:08:53;4.20;99.90
52965;DHT22;42923;53.220;6.528;2023-02-15T09:11:30;4.20;99.90
52965;DHT22;42923;53.220;6.528;2023-02-15T09:13:59;4.30;99.90
52965;DHT22;42923;53.220;6.528;2023-02-15T09:16:27;4.30;99.90
52965;DHT22;42923;53.220;6.528;2023-02-15T09:18:53;4.40;99.90
52965;DHT22;42923;53.220;6.528;2023-02-15T09:21:22;4.70;99.90
52965;DHT22;42923;53.220;6.528;2023-02-15T09:23:50;4.60;99.90
52965;DHT22;42923;53.220;6.528;2023-02-15T09:26:19;4.70;99.90
52965;DHT22;42923;53.220;6.528;2023-02-15T09:28:45;5.00;99.90
52965;DHT22;42923;53.220;6.528;2023-02-15T09:31:19;5.20;99.90
52965;DHT22;42923;53.220;6.528;2023-02-15T09:33:47;5.30;99.90
52965;DHT22;42923;53.220;6.528;2023-02-15T09:36:25;5.40;99.90
52965;DHT22;42923;53.220;6.528;2023-02-15T09:47:31;5.80;99.90
52965;DHT22;42923;53.220;6.528;2023-02-15T09:50:06;6.20;99.90
52965;DHT22;42923;53.220;6.528;2023-02-15T09:58:07;7.40;99.90
52965;DHT22;42923;53.220;6.528;2023-02-15T10:03:20;8.00;99.90
52965;DHT22;42923;53.220;6.528;2023-02-15T10:06:23;8.30;99.90
52965;DHT22;42923;53.220;6.528;2023-02-15T10:09:22;8.40;99.90
52965;DHT22;42923;53.220;6.528;2023-02-15T10:28:23;9.20;99.90
52965;DHT22;42923;53.220;6.528;2023-02-15T10:30:55;9.50;99.90
52965;DHT22;42923;53.220;6.528;2023-02-15T10:33:41;9.70;99.90
52965;DHT22;42923;53.220;6.528;2023-02-15T10:43:55;9.90;99.90
52965;DHT22;42923;53.220;6.528;2023-02-15T10:46:47;10.10;99.90
52965;DHT22;42923;53.220;6.528;2023-02-15T10:55:08;11.10;99.90
52965;DHT22;42923;53.220;6.528;2023-02-15T10:57:59;11.30;99.90
52965;DHT22;42923;53.220;6.528;2023-02-15T11:05:51;12.10;99.90
52965;DHT22;42923;53.220;6.528;2023-02-15T11:08:21;11.90;99.90
52965;DHT22;42923;53.220;6.528;2023-02-15T11:11:00;11.70;99.90
52965;DHT22;42923;53.220;6.528;2023-02-15T11:13:32;11.60;99.90
52965;DHT22;42923;53.220;6.528;2023-02-15T11:16:17;11.50;99.90
52965;DHT22;42923;53.220;6.528;2023-02-15T11:18:54;11.40;99.90
52965;DHT22;42923;53.220;6.528;2023-02-15T11:21:30;11.60;99.90
52965;DHT22;42923;53.220;6.528;2023-02-15T11:23:59;11.80;99.90
52965;DHT22;42923;53.220;6.528;2023-02-15T11:26:42;12.00;99.90
52965;DHT22;42923;53.220;6.528;2023-02-15T11:31:50;12.10;99.90
52965;DHT22;42923;53.220;6.528;2023-02-15T11:34:35;12.30;99.90
52965;DHT22;42923;53.220;6.528;2023-02-15T11:37:06;12.50;99.90
52965;DHT22;42923;53.220;6.528;2023-02-15T11:39:34;12.60;99.90
52965;DHT22;42923;53.220;6.528;2023-02-15T11:42:09;12.70;99.90
52965;DHT22;42923;53.220;6.528;2023-02-15T11:44:51;12.60;99.90
52965;DHT22;42923;53.220;6.528;2023-02-15T11:47:19;12.60;99.90
52965;DHT22;42923;53.220;6.528;2023-02-15T11:49:45;12.60;99.90
52965;DHT22;42923;53.220;6.528;2023-02-15T11:52:13;12.60;99.90
52965;DHT22;42923;53.220;6.528;2023-02-15T11:54:46;12.50;99.90
52965;DHT22;42923;53.220;6.528;2023-02-15T11:57:28;12.70;99.90
52965;DHT22;42923;53.220;6.528;2023-02-15T12:00:36;13.00;99.90
52965;DHT22;42923;53.220;6.528;2023-02-15T12:02:57;13.30;99.90
52965;DHT22;42923;53.220;6.528;2023-02-15T12:05:24;13.40;99.90
52965;DHT22;42923;53.220;6.528;2023-02-15T12:13:57;14.30;99.90
52965;DHT22;42923;53.220;6.528;2023-02-15T12:16:24;14.40;99.90
52965;DHT22;42923;53.220;6.528;2023-02-15T12:18:50;14.50;99.90
52965;DHT22;42923;53.220;6.528;2023-02-15T12:21:27;14.70;99.90
52965;DHT22;42923;53.220;6.528;2023-02-15T12:24:01;14.70;99.90
52965;DHT22;42923;53.220;6.528;2023-02-15T12:26:32;14.90;99.90
52965;DHT22;42923;53.220;6.528;2023-02-15T12:29:11;15.00;99.90
52965;DHT22;42923;53.220;6.528;2023-02-15T12:31:44;15.10;99.90
52965;DHT22;42923;53.220;6.528;2023-02-15T12:34:30;15.00;99.90
52965;DHT22;42923;53.220;6.528;2023-02-15T12:37:00;14.70;99.90
52965;DHT22;42923;53.220;6.528;2023-02-15T12:39:29;14.30;99.90
52965;DHT22;42923;53.220;6.528;2023-02-15T12:44:23;14.20;99.90
52965;DHT22;42923;53.220;6.528;2023-02-15T12:47:00;14.30;99.90
52965;DHT22;42923;53.220;6.528;2023-02-15T12:49:28;14.40;99.90
52965;DHT22;42923;53.220;6.528;2023-02-15T12:54:40;14.50;99.90
52965;DHT22;42923;53.220;6.528;2023-02-15T12:57:23;14.50;99.90
52965;DHT22;42923;53.220;6.528;2023-02-15T12:59:50;14.30;99.90
52965;DHT22;42923;53.220;6.528;2023-02-15T13:02:41;14.20;99.90
52965;DHT22;42923;53.220;6.528;2023-02-15T13:05:18;14.20;99.90
52965;DHT22;42923;53.220;6.528;2023-02-15T13:07:49;14.10;99.90
52965;DHT22;42923;53.220;6.528;2023-02-15T13:10:36;13.90;99.90
52965;DHT22;42923;53.220;6.528;2023-02-15T13:13:17;13.70;99.90
52965;DHT22;42923;53.220;6.528;2023-02-15T13:15:46;13.40;99.90
52965;DHT22;42923;53.220;6.528;2023-02-15T13:18:23;13.20;99.90
52965;DHT22;42923;53.220;6.528;2023-02-15T13:20:53;13.00;99.90
52965;DHT22;42923;53.220;6.528;2023-02-15T13:23:26;12.70;99.90
52965;DHT22;42923;53.220;6.528;2023-02-15T13:25:58;12.70;99.90
52965;DHT22;42923;53.220;6.528;2023-02-15T13:28:49;12.50;99.90
52965;DHT22;42923;53.220;6.528;2023-02-15T13:31:15;12.50;99.90
52965;DHT22;42923;53.220;6.528;2023-02-15T13:34:12;12.40;99.90
52965;DHT22;42923;53.220;6.528;2023-02-15T13:39:54;12.60;99.90
52965;DHT22;42923;53.220;6.528;2023-02-15T13:42:38;12.60;99.90
52965;DHT22;42923;53.220;6.528;2023-02-15T13:45:43;12.60;99.90
52965;DHT22;42923;53.220;6.528;2023-02-15T13:48:36;12.50;99.90
52965;DHT22;42923;53.220;6.528;2023-02-15T13:51:35;12.40;99.90
52965;DHT22;42923;53.220;6.528;2023-02-15T13:59:56;12.20;99.90
52965;DHT22;42923;53.220;6.528;2023-02-15T14:10:38;12.30;99.90
52965;DHT22;42923;53.220;6.528;2023-02-15T14:15:47;12.30;99.90
52965;DHT22;42923;53.220;6.528;2023-02-15T14:18:34;12.30;99.90
52965;DHT22;42923;53.220;6.528;2023-02-15T14:23:43;12.20;99.90
52965;DHT22;42923;53.220;6.528;2023-02-15T14:31:45;12.20;99.90
52965;DHT22;42923;53.220;6.528;2023-02-15T14:37:03;12.20;99.90
52965;DHT22;42923;53.220;6.528;2023-02-15T14:39:43;12.20;99.90
52965;DHT22;42923;53.220;6.528;2023-02-15T14:42:44;12.20;99.90
52965;DHT22;42923;53.220;6.528;2023-02-15T14:45:20;12.20;99.90
52965;DHT22;42923;53.220;6.528;2023-02-15T14:47:55;12.10;99.90
52965;DHT22;42923;53.220;6.528;2023-02-15T14:58:37;12.00;99.90
52965;DHT22;42923;53.220;6.528;2023-02-15T15:01:08;12.00;99.90
52965;DHT22;42923;53.220;6.528;2023-02-15T15:03:35;11.90;99.90
52965;DHT22;42923;53.220;6.528;2023-02-15T15:06:03;11.80;99.90
52965;DHT22;42923;53.220;6.528;2023-02-15T15:08:40;11.80;99.90
52965;DHT22;42923;53.220;6.528;2023-02-15T15:13:59;11.60;99.90
52965;DHT22;42923;53.220;6.528;2023-02-15T15:19:01;11.40;99.90
52965;DHT22;42923;53.220;6.528;2023-02-15T15:27:37;11.10;99.90
52965;DHT22;42923;53.220;6.528;2023-02-15T15:38:22;10.80;99.90
52965;DHT22;42923;53.220;6.528;2023-02-15T15:44:06;10.60;99.90
52965;DHT22;42923;53.220;6.528;2023-02-15T15:49:18;10.40;99.90
52965;DHT22;42923;53.220;6.528;2023-02-15T15:51:45;10.30;99.90
52965;DHT22;42923;53.220;6.528;2023-02-15T15:54:20;10.20;99.90
52965;DHT22;42923;53.220;6.528;2023-02-15T15:56:56;10.10;99.90
52965;DHT22;42923;53.220;6.528;2023-02-15T15:59:26;10.00;99.90
52965;DHT22;42923;53.220;6.528;2023-02-15T16:01:53;9.90;99.90
52965;DHT22;42923;53.220;6.528;2023-02-15T16:04:28;9.80;99.90
52965;DHT22;42923;53.220;6.528;2023-02-15T16:06:56;9.70;99.90
52965;DHT22;42923;53.220;6.528;2023-02-15T16:09:24;9.80;99.90
52965;DHT22;42923;53.220;6.528;2023-02-15T16:11:56;9.50;99.90
52965;DHT22;42923;53.220;6.528;2023-02-15T16:14:34;9.50;99.90
52965;DHT22;42923;53.220;6.528;2023-02-15T16:17:03;9.40;99.90
52965;DHT22;42923;53.220;6.528;2023-02-15T16:19:33;9.20;99.90
52965;DHT22;42923;53.220;6.528;2023-02-15T16:22:01;9.10;99.90
52965;DHT22;42923;53.220;6.528;2023-02-15T16:29:52;8.80;99.90
52965;DHT22;42923;53.220;6.528;2023-02-15T16:32:23;8.70;99.90
52965;DHT22;42923;53.220;6.528;2023-02-15T16:34:51;8.60;99.90
52965;DHT22;42923;53.220;6.528;2023-02-15T16:37:20;8.60;99.90
52965;DHT22;42923;53.220;6.528;2023-02-15T16:39:49;8.40;99.90
52965;DHT22;42923;53.220;6.528;2023-02-15T16:42:16;8.30;99.90
52965;DHT22;42923;53.220;6.528;2023-02-15T16:44:44;8.20;99.90
52965;DHT22;42923;53.220;6.528;2023-02-15T16:47:21;8.20;99.90
52965;DHT22;42923;53.220;6.528;2023-02-15T16:49:49;8.00;99.90
52965;DHT22;42923;53.220;6.528;2023-02-15T16:52:22;7.90;99.90
52965;DHT22;42923;53.220;6.528;2023-02-15T16:55:01;7.80;99.90
52965;DHT22;42923;53.220;6.528;2023-02-15T16:57:33;7.70;99.90
52965;DHT22;42923;53.220;6.528;2023-02-15T17:00:36;7.60;99.90
52965;DHT22;42923;53.220;6.528;2023-02-15T17:02:59;7.50;99.90
52965;DHT22;42923;53.220;6.528;2023-02-15T17:05:47;7.40;99.90
52965;DHT22;42923;53.220;6.528;2023-02-15T17:08:29;7.30;99.90
52965;DHT22;42923;53.220;6.528;2023-02-15T17:13:24;7.10;99.90
52965;DHT22;42923;53.220;6.528;2023-02-15T17:18:28;7.00;99.90
52965;DHT22;42923;53.220;6.528;2023-02-15T17:20:58;7.00;99.90
52965;DHT22;42923;53.220;6.528;2023-02-15T17:23:33;6.90;99.90
52965;DHT22;42923;53.220;6.528;2023-02-15T17:26:01;6.80;99.90
52965;DHT22;42923;53.220;6.528;2023-02-15T17:28:29;6.80;99.90
52965;DHT22;42923;53.220;6.528;2023-02-15T17:30:57;6.60;99.90
52965;DHT22;42923;53.220;6.528;2023-02-15T17:33:41;6.60;99.90
52965;DHT22;42923;53.220;6.528;2023-02-15T17:36:14;6.50;99.90
52965;DHT22;42923;53.220;6.528;2023-02-15T17:41:30;6.30;99.90
52965;DHT22;42923;53.220;6.528;2023-02-15T17:43:56;6.20;99.90
52965;DHT22;42923;53.220;6.528;2023-02-15T17:46:23;6.10;99.90
52965;DHT22;42923;53.220;6.528;2023-02-15T17:48:54;6.10;99.90
52965;DHT22;42923;53.220;6.528;2023-02-15T17:51:21;6.00;99.90
52965;DHT22;42923;53.220;6.528;2023-02-15T17:53:47;6.00;99.90
52965;DHT22;42923;53.220;6.528;2023-02-15T17:56:36;6.00;99.90
52965;DHT22;42923;53.220;6.528;2023-02-15T17:59:03;5.90;99.90
52965;DHT22;42923;53.220;6.528;2023-02-15T18:01:33;5.90;99.90
52965;DHT22;42923;53.220;6.528;2023-02-15T18:04:17;5.90;99.90
52965;DHT22;42923;53.220;6.528;2023-02-15T18:07:02;5.90;99.90
52965;DHT22;42923;53.220;6.528;2023-02-15T18:09:46;5.90;99.90
52965;DHT22;42923;53.220;6.528;2023-02-15T18:12:33;5.90;99.90
52965;DHT22;42923;53.220;6.528;2023-02-15T18:15:01;5.80;99.90
52965;DHT22;42923;53.220;6.528;2023-02-15T18:17:31;5.90;99.90
52965;DHT22;42923;53.220;6.528;2023-02-15T18:19:57;5.80;99.90
52965;DHT22;42923;53.220;6.528;2023-02-15T18:22:23;5.80;99.90
52965;DHT22;42923;53.220;6.528;2023-02-15T18:24:49;5.80;99.90
52965;DHT22;42923;53.220;6.528;2023-02-15T18:27:15;5.80;99.90
52965;DHT22;42923;53.220;6.528;2023-02-15T18:29:41;6.10;99.90
52965;DHT22;42923;53.220;6.528;2023-02-15T18:32:26;5.70;99.90
52965;DHT22;42923;53.220;6.528;2023-02-15T18:34:55;5.70;99.90
52965;DHT22;42923;53.220;6.528;2023-02-15T18:37:24;5.70;99.90
52965;DHT22;42923;53.220;6.528;2023-02-15T18:39:51;5.70;99.90
52965;DHT22;42923;53.220;6.528;2023-02-15T18:42:37;5.70;99.90
52965;DHT22;42923;53.220;6.528;2023-02-15T18:45:14;5.70;99.90
52965;DHT22;42923;53.220;6.528;2023-02-15T18:47:41;5.70;99.90
52965;DHT22;42923;53.220;6.528;2023-02-15T18:50:07;5.70;99.90
52965;DHT22;42923;53.220;6.528;2023-02-15T18:52:35;5.70;99.90
52965;DHT22;42923;53.220;6.528;2023-02-15T18:55:04;5.70;99.90
52965;DHT22;42923;53.220;6.528;2023-02-15T18:57:37;5.70;99.90
52965;DHT22;42923;53.220;6.528;2023-02-15T19:00:03;5.70;99.90
52965;DHT22;42923;53.220;6.528;2023-02-15T19:02:30;5.70;99.90
52965;DHT22;42923;53.220;6.528;2023-02-15T19:04:55;5.60;99.90